sensor_id;sensor_type;location;lat;lon;timestamp;temperature;humidity
31527;DHT22;18136;42.236;-73.040;2023-08-06T00:02:08;19.20;99.90
31527;DHT22;18136;42.236;-73.040;2023-08-06T00:04:34;19.20;99.90
31527;DHT22;18136;42.236;-73.040;2023-08-06T00:07:00;19.10;99.90
31527;DHT22;18136;42.236;-73.040;2023-08-06T00:09:26;19.00;99.90
31527;DHT22;18136;42.236;-73.040;2023-08-06T00:11:52;18.90;99.90
31527;DHT22;18136;42.236;-73.040;2023-08-06T00:14:18;18.90;99.90
31527;DHT22;18136;42.236;-73.040;2023-08-06T00:16:45;18.90;99.90
31527;DHT22;18136;42.236;-73.040;2023-08-06T00:19:12;18.80;99.90
31527;DHT22;18136;42.236;-73.040;2023-08-06T00:21:39;18.70;99.90
31527;DHT22;18136;42.236;-73.040;2023-08-06T00:24:05;18.70;99.90
31527;DHT22;18136;42.236;-73.040;2023-08-06T00:26:31;18.60;99.90
31527;DHT22;18136;42.236;-73.040;2023-08-06T00:28:57;18.60;99.90
31527;DHT22;18136;42.236;-73.040;2023-08-06T00:31:25;18.50;99.90
31527;DHT22;18136;42.236;-73.040;2023-08-06T00:33:51;18.40;99.90
31527;DHT22;18136;42.236;-73.040;2023-08-06T00:36:17;18.40;99.90
31527;DHT22;18136;42.236;-73.040;2023-08-06T00:38:43;18.40;99.90
31527;DHT22;18136;42.236;-73.040;2023-08-06T00:41:09;18.20;99.90
31527;DHT22;18136;42.236;-73.040;2023-08-06T00:43:35;18.20;99.90
31527;DHT22;18136;42.236;-73.040;2023-08-06T00:46:01;18.20;99.90
31527;DHT22;18136;42.236;-73.040;2023-08-06T00:48:28;18.10;99.90
31527;DHT22;18136;42.236;-73.040;2023-08-06T00:50:54;18.10;99.90
31527;DHT22;18136;42.236;-73.040;2023-08-06T00:53:20;18.00;99.90
31527;DHT22;18136;42.236;-73.040;2023-08-06T00:55:46;18.00;99.90
31527;DHT22;18136;42.236;-73.040;2023-08-06T00:58:14;17.90;99.90
31527;DHT22;18136;42.236;-73.040;2023-08-06T01:00:41;17.90;99.90
31527;DHT22;18136;42.236;-73.040;2023-08-06T01:03:08;17.90;99.90
31527;DHT22;18136;42.236;-73.040;2023-08-06T01:05:34;17.80;99.90
31527;DHT22;18136;42.236;-73.040;2023-08-06T01:08:40;17.80;99.90
31527;DHT22;18136;42.236;-73.040;2023-08-06T01:14:20;17.70;99.90
31527;DHT22;18136;42.236;-73.040;2023-08-06T01:16:51;17.60;99.90
31527;DHT22;18136;42.236;-73.040;2023-08-06T01:19:18;17.60;99.90
31527;DHT22;18136;42.236;-73.040;2023-08-06T01:21:44;17.60;99.90
31527;DHT22;18136;42.236;-73.040;2023-08-06T01:24:11;17.60;99.90
31527;DHT22;18136;42.236;-73.040;2023-08-06T01:26:44;17.50;99.90
31527;DHT22;18136;42.236;-73.040;2023-08-06T01:29:39;17.50;99.90
31527;DHT22;18136;42.236;-73.040;2023-08-06T01:32:10;17.50;99.90
31527;DHT22;18136;42.236;-73.040;2023-08-06T01:34:40;17.40;99.90
31527;DHT22;18136;42.236;-73.040;2023-08-06T01:37:07;17.40;99.90
31527;DHT22;18136;42.236;-73.040;2023-08-06T01:39:34;17.40;99.90
31527;DHT22;18136;42.236;-73.040;2023-08-06T01:42:01;17.40;99.90
31527;DHT22;18136;42.236;-73.040;2023-08-06T01:44:27;17.40;99.90
31527;DHT22;18136;42.236;-73.040;2023-08-06T01:46:54;17.30;99.90
31527;DHT22;18136;42.236;-73.040;2023-08-06T01:49:20;17.20;99.90
31527;DHT22;18136;42.236;-73.040;2023-08-06T01:51:46;17.20;99.90
31527;DHT22;18136;42.236;-73.040;2023-08-06T01:54:12;17.20;99.90
31527;DHT22;18136;42.236;-73.040;2023-08-06T01:56:38;17.10;99.90
31527;DHT22;18136;42.236;-73.040;2023-08-06T01:59:04;17.10;99.90
31527;DHT22;18136;42.236;-73.040;2023-08-06T02:01:30;17.10;99.90
31527;DHT22;18136;42.236;-73.040;2023-08-06T02:03:56;17.00;99.90
31527;DHT22;18136;42.236;-73.040;2023-08-06T02:06:22;17.00;99.90
31527;DHT22;18136;42.236;-73.040;2023-08-06T02:08:48;16.90;99.90
31527;DHT22;18136;42.236;-73.040;2023-08-06T02:11:14;16.90;99.90
31527;DHT22;18136;42.236;-73.040;2023-08-06T02:13:40;16.80;99.90
31527;DHT22;18136;42.236;-73.040;2023-08-06T02:16:09;16.80;99.90
31527;DHT22;18136;42.236;-73.040;2023-08-06T02:18:35;16.70;99.90
31527;DHT22;18136;42.236;-73.040;2023-08-06T02:21:02;16.70;99.90
31527;DHT22;18136;42.236;-73.040;2023-08-06T02:23:28;16.60;99.90
31527;DHT22;18136;42.236;-73.040;2023-08-06T02:26:01;16.60;99.90
31527;DHT22;18136;42.236;-73.040;2023-08-06T02:28:29;16.50;99.90
31527;DHT22;18136;42.236;-73.040;2023-08-06T02:30:55;16.50;99.90
31527;DHT22;18136;42.236;-73.040;2023-08-06T02:33:21;16.50;99.90
31527;DHT22;18136;42.236;-73.040;2023-08-06T02:35:47;16.50;99.90
31527;DHT22;18136;42.236;-73.040;2023-08-06T02:38:13;16.40;99.90
31527;DHT22;18136;42.236;-73.040;2023-08-06T02:40:46;16.40;99.90
31527;DHT22;18136;42.236;-73.040;2023-08-06T02:43:13;16.30;99.90
31527;DHT22;18136;42.236;-73.040;2023-08-06T02:45:39;16.30;99.90
31527;DHT22;18136;42.236;-73.040;2023-08-06T02:48:05;16.30;99.90
31527;DHT22;18136;42.236;-73.040;2023-08-06T02:50:37;16.20;99.90
31527;DHT22;18136;42.236;-73.040;2023-08-06T02:53:03;16.20;99.90
31527;DHT22;18136;42.236;-73.040;2023-08-06T02:55:29;16.20;99.90
31527;DHT22;18136;42.236;-73.040;2023-08-06T02:57:55;16.20;99.90
31527;DHT22;18136;42.236;-73.040;2023-08-06T03:00:21;16.10;99.90
31527;DHT22;18136;42.236;-73.040;2023-08-06T03:02:47;16.10;99.90
31527;DHT22;18136;42.236;-73.040;2023-08-06T03:05:13;16.10;99.90
31527;DHT22;18136;42.236;-73.040;2023-08-06T03:07:40;16.00;99.90
31527;DHT22;18136;42.236;-73.040;2023-08-06T03:10:06;16.00;99.90
31527;DHT22;18136;42.236;-73.040;2023-08-06T03:12:32;15.90;99.90
31527;DHT22;18136;42.236;-73.040;2023-08-06T03:14:58;15.90;99.90
31527;DHT22;18136;42.236;-73.040;2023-08-06T03:17:24;15.90;99.90
31527;DHT22;18136;42.236;-73.040;2023-08-06T03:19:50;15.90;99.90
31527;DHT22;18136;42.236;-73.040;2023-08-06T03:22:16;15.90;99.90
31527;DHT22;18136;42.236;-73.040;2023-08-06T03:24:42;15.80;99.90
31527;DHT22;18136;42.236;-73.040;2023-08-06T03:27:09;15.80;99.90
31527;DHT22;18136;42.236;-73.040;2023-08-06T03:29:35;15.80;99.90
31527;DHT22;18136;42.236;-73.040;2023-08-06T03:32:04;15.70;99.90
31527;DHT22;18136;42.236;-73.040;2023-08-06T03:34:30;15.70;99.90
31527;DHT22;18136;42.236;-73.040;2023-08-06T03:36:57;15.70;99.90
31527;DHT22;18136;42.236;-73.040;2023-08-06T03:39:23;15.60;99.90
31527;DHT22;18136;42.236;-73.040;2023-08-06T03:41:49;15.60;99.90
31527;DHT22;18136;42.236;-73.040;2023-08-06T03:44:15;15.60;99.90
31527;DHT22;18136;42.236;-73.040;2023-08-06T03:46:41;15.60;99.90
31527;DHT22;18136;42.236;-73.040;2023-08-06T03:49:07;15.50;99.90
31527;DHT22;18136;42.236;-73.040;2023-08-06T03:51:33;15.50;99.90
31527;DHT22;18136;42.236;-73.040;2023-08-06T03:53:59;15.50;99.90
31527;DHT22;18136;42.236;-73.040;2023-08-06T03:56:25;15.40;99.90
31527;DHT22;18136;42.236;-73.040;2023-08-06T03:58:51;15.40;99.90
31527;DHT22;18136;42.236;-73.040;2023-08-06T04:01:17;15.40;99.90
31527;DHT22;18136;42.236;-73.040;2023-08-06T04:03:44;15.40;99.90
31527;DHT22;18136;42.236;-73.040;2023-08-06T04:06:10;15.30;99.90
31527;DHT22;18136;42.236;-73.040;2023-08-06T04:08:37;15.30;99.90
31527;DHT22;18136;42.236;-73.040;2023-08-06T04:11:03;15.30;99.90
31527;DHT22;18136;42.236;-73.040;2023-08-06T04:13:29;15.30;99.90
31527;DHT22;18136;42.236;-73.040;2023-08-06T04:15:55;15.20;99.90
31527;DHT22;18136;42.236;-73.040;2023-08-06T04:18:26;15.20;99.90
31527;DHT22;18136;42.236;-73.040;2023-08-06T04:20:52;15.20;99.90
31527;DHT22;18136;42.236;-73.040;2023-08-06T04:23:21;15.10;99.90
31527;DHT22;18136;42.236;-73.040;2023-08-06T04:25:47;15.00;99.90
31527;DHT22;18136;42.236;-73.040;2023-08-06T04:28:13;15.00;99.90
31527;DHT22;18136;42.236;-73.040;2023-08-06T04:30:41;15.00;99.90
31527;DHT22;18136;42.236;-73.040;2023-08-06T04:33:07;14.90;99.90
31527;DHT22;18136;42.236;-73.040;2023-08-06T04:35:33;15.00;99.90
31527;DHT22;18136;42.236;-73.040;2023-08-06T04:37:59;14.90;99.90
31527;DHT22;18136;42.236;-73.040;2023-08-06T04:40:25;14.90;99.90
31527;DHT22;18136;42.236;-73.040;2023-08-06T04:42:51;14.80;99.90
31527;DHT22;18136;42.236;-73.040;2023-08-06T04:45:17;14.80;99.90
31527;DHT22;18136;42.236;-73.040;2023-08-06T04:47:43;14.70;99.90
31527;DHT22;18136;42.236;-73.040;2023-08-06T04:50:09;14.70;99.90
31527;DHT22;18136;42.236;-73.040;2023-08-06T04:52:35;14.60;99.90
31527;DHT22;18136;42.236;-73.040;2023-08-06T04:55:03;14.60;99.90
31527;DHT22;18136;42.236;-73.040;2023-08-06T04:57:31;14.60;99.90
31527;DHT22;18136;42.236;-73.040;2023-08-06T04:59:57;14.60;99.90
31527;DHT22;18136;42.236;-73.040;2023-08-06T05:02:23;14.60;99.90
31527;DHT22;18136;42.236;-73.040;2023-08-06T05:04:49;14.50;99.90
31527;DHT22;18136;42.236;-73.040;2023-08-06T05:07:15;14.50;99.90
31527;DHT22;18136;42.236;-73.040;2023-08-06T05:09:41;14.50;99.90
31527;DHT22;18136;42.236;-73.040;2023-08-06T05:12:08;14.40;99.90
31527;DHT22;18136;42.236;-73.040;2023-08-06T05:14:34;14.40;99.90
31527;DHT22;18136;42.236;-73.040;2023-08-06T05:17:00;14.30;99.90
31527;DHT22;18136;42.236;-73.040;2023-08-06T05:19:28;14.30;99.90
31527;DHT22;18136;42.236;-73.040;2023-08-06T05:21:54;14.30;99.90
31527;DHT22;18136;42.236;-73.040;2023-08-06T05:24:20;14.30;99.90
31527;DHT22;18136;42.236;-73.040;2023-08-06T05:26:47;14.30;99.90
31527;DHT22;18136;42.236;-73.040;2023-08-06T05:29:13;14.20;99.90
31527;DHT22;18136;42.236;-73.040;2023-08-06T05:31:39;14.20;99.90
31527;DHT22;18136;42.236;-73.040;2023-08-06T05:34:06;14.20;99.90
31527;DHT22;18136;42.236;-73.040;2023-08-06T05:36:33;14.10;99.90
31527;DHT22;18136;42.236;-73.040;2023-08-06T05:38:59;14.10;99.90
31527;DHT22;18136;42.236;-73.040;2023-08-06T05:41:25;14.10;99.90
31527;DHT22;18136;42.236;-73.040;2023-08-06T05:43:51;14.00;99.90
31527;DHT22;18136;42.236;-73.040;2023-08-06T05:46:17;14.10;99.90
31527;DHT22;18136;42.236;-73.040;2023-08-06T05:48:43;14.00;99.90
31527;DHT22;18136;42.236;-73.040;2023-08-06T05:51:09;14.00;99.90
31527;DHT22;18136;42.236;-73.040;2023-08-06T05:53:38;14.00;99.90
31527;DHT22;18136;42.236;-73.040;2023-08-06T05:56:04;14.00;99.90
31527;DHT22;18136;42.236;-73.040;2023-08-06T05:58:30;13.90;99.90
31527;DHT22;18136;42.236;-73.040;2023-08-06T06:00:56;13.90;99.90
31527;DHT22;18136;42.236;-73.040;2023-08-06T06:03:23;13.90;99.90
31527;DHT22;18136;42.236;-73.040;2023-08-06T06:05:49;13.90;99.90
31527;DHT22;18136;42.236;-73.040;2023-08-06T06:08:15;13.90;99.90
31527;DHT22;18136;42.236;-73.040;2023-08-06T06:10:41;13.80;99.90
31527;DHT22;18136;42.236;-73.040;2023-08-06T06:13:07;13.80;99.90
31527;DHT22;18136;42.236;-73.040;2023-08-06T06:15:33;13.80;99.90
31527;DHT22;18136;42.236;-73.040;2023-08-06T06:17:59;13.80;99.90
31527;DHT22;18136;42.236;-73.040;2023-08-06T06:20:25;13.70;99.90
31527;DHT22;18136;42.236;-73.040;2023-08-06T06:22:52;13.70;99.90
31527;DHT22;18136;42.236;-73.040;2023-08-06T06:25:18;13.70;99.90
31527;DHT22;18136;42.236;-73.040;2023-08-06T06:27:44;13.70;99.90
31527;DHT22;18136;42.236;-73.040;2023-08-06T06:30:11;13.70;99.90
31527;DHT22;18136;42.236;-73.040;2023-08-06T06:32:38;13.70;99.90
31527;DHT22;18136;42.236;-73.040;2023-08-06T06:35:06;13.60;99.90
31527;DHT22;18136;42.236;-73.040;2023-08-06T06:37:32;13.60;99.90
31527;DHT22;18136;42.236;-73.040;2023-08-06T06:39:58;13.60;99.90
31527;DHT22;18136;42.236;-73.040;2023-08-06T06:42:24;13.50;99.90
31527;DHT22;18136;42.236;-73.040;2023-08-06T06:44:50;13.50;99.90
31527;DHT22;18136;42.236;-73.040;2023-08-06T06:47:16;13.50;99.90
31527;DHT22;18136;42.236;-73.040;2023-08-06T06:49:42;13.50;99.90
31527;DHT22;18136;42.236;-73.040;2023-08-06T06:52:08;13.50;99.90
31527;DHT22;18136;42.236;-73.040;2023-08-06T06:54:34;13.40;99.90
31527;DHT22;18136;42.236;-73.040;2023-08-06T06:57:01;13.40;99.90
31527;DHT22;18136;42.236;-73.040;2023-08-06T06:59:27;13.40;99.90
31527;DHT22;18136;42.236;-73.040;2023-08-06T07:01:53;13.40;99.90
31527;DHT22;18136;42.236;-73.040;2023-08-06T07:04:19;13.30;99.90
31527;DHT22;18136;42.236;-73.040;2023-08-06T07:06:45;13.40;99.90
31527;DHT22;18136;42.236;-73.040;2023-08-06T07:09:11;13.30;99.90
31527;DHT22;18136;42.236;-73.040;2023-08-06T07:11:37;13.30;99.90
31527;DHT22;18136;42.236;-73.040;2023-08-06T07:14:03;13.30;99.90
31527;DHT22;18136;42.236;-73.040;2023-08-06T07:16:29;13.20;99.90
31527;DHT22;18136;42.236;-73.040;2023-08-06T07:18:55;13.20;99.90
31527;DHT22;18136;42.236;-73.040;2023-08-06T07:21:21;13.20;99.90
31527;DHT22;18136;42.236;-73.040;2023-08-06T07:23:48;13.10;99.90
31527;DHT22;18136;42.236;-73.040;2023-08-06T07:26:16;13.10;99.90
31527;DHT22;18136;42.236;-73.040;2023-08-06T07:28:42;13.10;99.90
31527;DHT22;18136;42.236;-73.040;2023-08-06T07:31:08;13.00;99.90
31527;DHT22;18136;42.236;-73.040;2023-08-06T07:33:34;13.00;99.90
31527;DHT22;18136;42.236;-73.040;2023-08-06T07:36:06;13.00;99.90
31527;DHT22;18136;42.236;-73.040;2023-08-06T07:38:33;13.00;99.90
31527;DHT22;18136;42.236;-73.040;2023-08-06T07:41:02;13.00;99.90
31527;DHT22;18136;42.236;-73.040;2023-08-06T07:43:28;13.00;99.90
31527;DHT22;18136;42.236;-73.040;2023-08-06T07:45:54;13.00;99.90
31527;DHT22;18136;42.236;-73.040;2023-08-06T07:48:23;12.90;99.90
31527;DHT22;18136;42.236;-73.040;2023-08-06T07:50:55;12.90;99.90
31527;DHT22;18136;42.236;-73.040;2023-08-06T07:53:22;12.90;99.90
31527;DHT22;18136;42.236;-73.040;2023-08-06T07:55:50;12.90;99.90
31527;DHT22;18136;42.236;-73.040;2023-08-06T07:58:17;12.80;99.90
31527;DHT22;18136;42.236;-73.040;2023-08-06T08:00:43;12.80;99.90
31527;DHT22;18136;42.236;-73.040;2023-08-06T08:03:12;12.80;99.90
31527;DHT22;18136;42.236;-73.040;2023-08-06T08:05:42;12.80;99.90
31527;DHT22;18136;42.236;-73.040;2023-08-06T08:08:08;12.80;99.90
31527;DHT22;18136;42.236;-73.040;2023-08-06T08:10:35;12.80;99.90
31527;DHT22;18136;42.236;-73.040;2023-08-06T08:13:05;12.70;99.90
31527;DHT22;18136;42.236;-73.040;2023-08-06T08:15:32;12.70;99.90
31527;DHT22;18136;42.236;-73.040;2023-08-06T08:17:58;12.70;99.90
31527;DHT22;18136;42.236;-73.040;2023-08-06T08:20:25;12.70;99.90
31527;DHT22;18136;42.236;-73.040;2023-08-06T08:22:58;12.60;99.90
31527;DHT22;18136;42.236;-73.040;2023-08-06T08:25:24;12.60;99.90
31527;DHT22;18136;42.236;-73.040;2023-08-06T08:27:50;12.60;99.90
31527;DHT22;18136;42.236;-73.040;2023-08-06T08:30:16;12.50;99.90
31527;DHT22;18136;42.236;-73.040;2023-08-06T08:32:42;12.50;99.90
31527;DHT22;18136;42.236;-73.040;2023-08-06T08:35:09;12.50;99.90
31527;DHT22;18136;42.236;-73.040;2023-08-06T08:37:35;12.50;99.90
31527;DHT22;18136;42.236;-73.040;2023-08-06T08:40:02;12.50;99.90
31527;DHT22;18136;42.236;-73.040;2023-08-06T08:42:29;12.40;99.90
31527;DHT22;18136;42.236;-73.040;2023-08-06T08:44:55;12.40;99.90
31527;DHT22;18136;42.236;-73.040;2023-08-06T08:47:23;12.40;99.90
31527;DHT22;18136;42.236;-73.040;2023-08-06T08:49:53;12.40;99.90
31527;DHT22;18136;42.236;-73.040;2023-08-06T08:52:22;12.30;99.90
31527;DHT22;18136;42.236;-73.040;2023-08-06T08:54:48;12.40;99.90
31527;DHT22;18136;42.236;-73.040;2023-08-06T08:57:19;12.30;99.90
31527;DHT22;18136;42.236;-73.040;2023-08-06T08:59:46;12.30;99.90
31527;DHT22;18136;42.236;-73.040;2023-08-06T09:02:13;12.30;99.90
31527;DHT22;18136;42.236;-73.040;2023-08-06T09:04:41;12.20;99.90
31527;DHT22;18136;42.236;-73.040;2023-08-06T09:07:10;12.20;99.90
31527;DHT22;18136;42.236;-73.040;2023-08-06T09:09:39;12.20;99.90
31527;DHT22;18136;42.236;-73.040;2023-08-06T09:12:15;12.20;99.90
31527;DHT22;18136;42.236;-73.040;2023-08-06T09:14:42;12.20;99.90
31527;DHT22;18136;42.236;-73.040;2023-08-06T09:17:10;12.20;99.90
31527;DHT22;18136;42.236;-73.040;2023-08-06T09:19:36;12.10;99.90
31527;DHT22;18136;42.236;-73.040;2023-08-06T09:22:03;12.10;99.90
31527;DHT22;18136;42.236;-73.040;2023-08-06T09:24:29;12.10;99.90
31527;DHT22;18136;42.236;-73.040;2023-08-06T09:26:55;12.10;99.90
31527;DHT22;18136;42.236;-73.040;2023-08-06T09:29:22;12.00;99.90
31527;DHT22;18136;42.236;-73.040;2023-08-06T09:31:52;12.00;99.90
31527;DHT22;18136;42.236;-73.040;2023-08-06T09:34:22;12.00;99.90
31527;DHT22;18136;42.236;-73.040;2023-08-06T09:36:53;11.90;99.90
31527;DHT22;18136;42.236;-73.040;2023-08-06T09:39:29;11.90;99.90
31527;DHT22;18136;42.236;-73.040;2023-08-06T09:41:57;11.90;99.90
31527;DHT22;18136;42.236;-73.040;2023-08-06T09:44:25;11.90;99.90
31527;DHT22;18136;42.236;-73.040;2023-08-06T09:46:54;11.90;99.90
31527;DHT22;18136;42.236;-73.040;2023-08-06T09:49:41;11.90;99.90
31527;DHT22;18136;42.236;-73.040;2023-08-06T09:52:14;11.80;99.90
31527;DHT22;18136;42.236;-73.040;2023-08-06T09:54:44;11.90;99.90
31527;DHT22;18136;42.236;-73.040;2023-08-06T09:57:11;11.80;99.90
31527;DHT22;18136;42.236;-73.040;2023-08-06T09:59:46;11.80;99.90
31527;DHT22;18136;42.236;-73.040;2023-08-06T10:02:13;11.80;99.90
31527;DHT22;18136;42.236;-73.040;2023-08-06T10:04:40;11.80;99.90
31527;DHT22;18136;42.236;-73.040;2023-08-06T10:07:08;11.80;99.90
31527;DHT22;18136;42.236;-73.040;2023-08-06T10:09:34;11.70;99.90
31527;DHT22;18136;42.236;-73.040;2023-08-06T10:12:01;11.70;99.90
31527;DHT22;18136;42.236;-73.040;2023-08-06T10:14:30;11.80;99.90
31527;DHT22;18136;42.236;-73.040;2023-08-06T10:16:59;11.70;99.90
31527;DHT22;18136;42.236;-73.040;2023-08-06T10:19:26;11.80;99.90
31527;DHT22;18136;42.236;-73.040;2023-08-06T10:22:10;11.70;99.90
31527;DHT22;18136;42.236;-73.040;2023-08-06T10:24:50;11.70;99.90
31527;DHT22;18136;42.236;-73.040;2023-08-06T10:27:21;11.70;99.90
31527;DHT22;18136;42.236;-73.040;2023-08-06T10:29:48;11.70;99.90
31527;DHT22;18136;42.236;-73.040;2023-08-06T10:32:17;11.70;99.90
31527;DHT22;18136;42.236;-73.040;2023-08-06T10:34:57;11.60;99.90
31527;DHT22;18136;42.236;-73.040;2023-08-06T10:37:35;11.70;99.90
31527;DHT22;18136;42.236;-73.040;2023-08-06T10:40:02;11.70;99.90
31527;DHT22;18136;42.236;-73.040;2023-08-06T10:42:30;11.70;99.90
31527;DHT22;18136;42.236;-73.040;2023-08-06T10:45:22;11.70;99.90
31527;DHT22;18136;42.236;-73.040;2023-08-06T10:47:54;11.80;99.90
31527;DHT22;18136;42.236;-73.040;2023-08-06T10:50:22;11.80;99.90
31527;DHT22;18136;42.236;-73.040;2023-08-06T10:52:48;11.80;99.90
31527;DHT22;18136;42.236;-73.040;2023-08-06T10:55:21;11.80;99.90
31527;DHT22;18136;42.236;-73.040;2023-08-06T10:57:47;11.80;99.90
31527;DHT22;18136;42.236;-73.040;2023-08-06T11:00:14;11.80;99.90
31527;DHT22;18136;42.236;-73.040;2023-08-06T11:02:41;11.80;99.90
31527;DHT22;18136;42.236;-73.040;2023-08-06T11:05:09;11.90;99.90
31527;DHT22;18136;42.236;-73.040;2023-08-06T11:07:36;11.90;99.90
31527;DHT22;18136;42.236;-73.040;2023-08-06T11:10:04;12.00;99.90
31527;DHT22;18136;42.236;-73.040;2023-08-06T11:12:31;12.00;99.90
31527;DHT22;18136;42.236;-73.040;2023-08-06T11:14:58;12.10;99.90
31527;DHT22;18136;42.236;-73.040;2023-08-06T11:17:25;12.10;99.90
31527;DHT22;18136;42.236;-73.040;2023-08-06T11:19:53;12.10;99.90
31527;DHT22;18136;42.236;-73.040;2023-08-06T11:22:21;12.20;99.90
31527;DHT22;18136;42.236;-73.040;2023-08-06T11:24:48;12.30;99.90
31527;DHT22;18136;42.236;-73.040;2023-08-06T11:27:17;12.30;99.90
31527;DHT22;18136;42.236;-73.040;2023-08-06T11:29:44;12.30;99.90
31527;DHT22;18136;42.236;-73.040;2023-08-06T11:32:11;12.40;99.90
31527;DHT22;18136;42.236;-73.040;2023-08-06T11:34:38;12.40;99.90
31527;DHT22;18136;42.236;-73.040;2023-08-06T11:37:05;12.50;99.90
31527;DHT22;18136;42.236;-73.040;2023-08-06T11:39:35;12.50;99.90
31527;DHT22;18136;42.236;-73.040;2023-08-06T11:42:07;12.60;99.90
31527;DHT22;18136;42.236;-73.040;2023-08-06T11:44:36;12.60;99.90
31527;DHT22;18136;42.236;-73.040;2023-08-06T11:47:04;12.70;99.90
31527;DHT22;18136;42.236;-73.040;2023-08-06T11:49:47;12.80;99.90
31527;DHT22;18136;42.236;-73.040;2023-08-06T11:52:24;12.90;99.90
31527;DHT22;18136;42.236;-73.040;2023-08-06T11:57:32;13.00;99.90
31527;DHT22;18136;42.236;-73.040;2023-08-06T12:00:12;13.10;99.90
31527;DHT22;18136;42.236;-73.040;2023-08-06T12:02:40;13.20;99.90
31527;DHT22;18136;42.236;-73.040;2023-08-06T12:05:14;13.20;99.90
31527;DHT22;18136;42.236;-73.040;2023-08-06T12:07:42;13.30;99.90
31527;DHT22;18136;42.236;-73.040;2023-08-06T12:10:08;13.40;99.90
31527;DHT22;18136;42.236;-73.040;2023-08-06T12:12:35;13.50;99.90
31527;DHT22;18136;42.236;-73.040;2023-08-06T12:15:01;13.60;99.90
31527;DHT22;18136;42.236;-73.040;2023-08-06T12:17:28;13.70;99.90
31527;DHT22;18136;42.236;-73.040;2023-08-06T12:19:54;13.80;99.90
31527;DHT22;18136;42.236;-73.040;2023-08-06T12:22:20;13.90;99.90
31527;DHT22;18136;42.236;-73.040;2023-08-06T12:24:48;14.00;99.90
31527;DHT22;18136;42.236;-73.040;2023-08-06T12:27:16;14.00;99.90
31527;DHT22;18136;42.236;-73.040;2023-08-06T12:29:43;14.10;99.90
31527;DHT22;18136;42.236;-73.040;2023-08-06T12:32:10;14.20;99.90
31527;DHT22;18136;42.236;-73.040;2023-08-06T12:34:38;14.40;99.90
31527;DHT22;18136;42.236;-73.040;2023-08-06T12:37:06;14.40;99.90
31527;DHT22;18136;42.236;-73.040;2023-08-06T12:39:33;14.60;99.90
31527;DHT22;18136;42.236;-73.040;2023-08-06T12:42:03;14.70;99.90
31527;DHT22;18136;42.236;-73.040;2023-08-06T12:44:30;14.80;99.90
31527;DHT22;18136;42.236;-73.040;2023-08-06T12:46:56;15.00;99.90
31527;DHT22;18136;42.236;-73.040;2023-08-06T12:49:22;15.10;99.90
31527;DHT22;18136;42.236;-73.040;2023-08-06T12:51:49;15.20;99.90
31527;DHT22;18136;42.236;-73.040;2023-08-06T12:54:20;15.40;99.90
31527;DHT22;18136;42.236;-73.040;2023-08-06T12:56:47;15.60;99.90
31527;DHT22;18136;42.236;-73.040;2023-08-06T12:59:16;15.70;99.90
31527;DHT22;18136;42.236;-73.040;2023-08-06T13:01:44;15.90;99.90
31527;DHT22;18136;42.236;-73.040;2023-08-06T13:04:10;16.10;99.90
31527;DHT22;18136;42.236;-73.040;2023-08-06T13:06:37;16.30;99.90
31527;DHT22;18136;42.236;-73.040;2023-08-06T13:09:09;16.50;99.90
31527;DHT22;18136;42.236;-73.040;2023-08-06T13:11:35;16.70;99.90
31527;DHT22;18136;42.236;-73.040;2023-08-06T13:14:09;16.90;99.90
31527;DHT22;18136;42.236;-73.040;2023-08-06T13:16:37;17.20;99.90
31527;DHT22;18136;42.236;-73.040;2023-08-06T13:19:04;17.40;99.90
31527;DHT22;18136;42.236;-73.040;2023-08-06T13:24:08;17.70;99.90
31527;DHT22;18136;42.236;-73.040;2023-08-06T13:26:35;17.90;99.90
31527;DHT22;18136;42.236;-73.040;2023-08-06T13:29:03;18.10;99.90
31527;DHT22;18136;42.236;-73.040;2023-08-06T13:31:29;18.40;99.90
31527;DHT22;18136;42.236;-73.040;2023-08-06T13:33:56;18.60;99.90
31527;DHT22;18136;42.236;-73.040;2023-08-06T13:36:24;18.90;99.90
31527;DHT22;18136;42.236;-73.040;2023-08-06T13:38:50;19.10;99.90
31527;DHT22;18136;42.236;-73.040;2023-08-06T13:41:17;19.30;99.90
31527;DHT22;18136;42.236;-73.040;2023-08-06T13:43:43;19.50;99.90
31527;DHT22;18136;42.236;-73.040;2023-08-06T13:46:11;19.70;99.90
31527;DHT22;18136;42.236;-73.040;2023-08-06T13:48:44;19.80;99.90
31527;DHT22;18136;42.236;-73.040;2023-08-06T13:51:11;19.70;99.90
31527;DHT22;18136;42.236;-73.040;2023-08-06T13:53:42;19.70;99.90
31527;DHT22;18136;42.236;-73.040;2023-08-06T13:56:09;19.70;99.90
31527;DHT22;18136;42.236;-73.040;2023-08-06T13:58:37;19.70;99.90
31527;DHT22;18136;42.236;-73.040;2023-08-06T14:01:03;19.90;99.90
31527;DHT22;18136;42.236;-73.040;2023-08-06T14:03:31;19.80;99.90
31527;DHT22;18136;42.236;-73.040;2023-08-06T14:05:57;19.60;99.90
31527;DHT22;18136;42.236;-73.040;2023-08-06T14:08:24;19.60;99.90
31527;DHT22;18136;42.236;-73.040;2023-08-06T14:10:51;19.90;99.90
31527;DHT22;18136;42.236;-73.040;2023-08-06T14:13:17;20.10;99.90
31527;DHT22;18136;42.236;-73.040;2023-08-06T14:15:44;19.90;99.90
31527;DHT22;18136;42.236;-73.040;2023-08-06T14:18:16;19.80;99.90
31527;DHT22;18136;42.236;-73.040;2023-08-06T14:20:43;19.90;99.90
31527;DHT22;18136;42.236;-73.040;2023-08-06T14:23:09;20.00;99.90
31527;DHT22;18136;42.236;-73.040;2023-08-06T14:25:36;20.20;99.90
31527;DHT22;18136;42.236;-73.040;2023-08-06T14:28:03;20.50;99.90
31527;DHT22;18136;42.236;-73.040;2023-08-06T14:30:32;20.70;99.90
31527;DHT22;18136;42.236;-73.040;2023-08-06T14:33:00;20.80;99.90
31527;DHT22;18136;42.236;-73.040;2023-08-06T14:35:27;21.00;99.90
31527;DHT22;18136;42.236;-73.040;2023-08-06T14:37:54;21.20;99.90
31527;DHT22;18136;42.236;-73.040;2023-08-06T14:40:21;21.20;99.90
31527;DHT22;18136;42.236;-73.040;2023-08-06T14:42:47;21.20;99.90
31527;DHT22;18136;42.236;-73.040;2023-08-06T14:45:14;21.30;99.90
31527;DHT22;18136;42.236;-73.040;2023-08-06T14:47:40;21.20;99.90
31527;DHT22;18136;42.236;-73.040;2023-08-06T14:50:06;21.20;99.90
31527;DHT22;18136;42.236;-73.040;2023-08-06T14:52:32;21.30;99.90
31527;DHT22;18136;42.236;-73.040;2023-08-06T14:55:00;21.40;99.90
31527;DHT22;18136;42.236;-73.040;2023-08-06T14:57:28;21.50;99.90
31527;DHT22;18136;42.236;-73.040;2023-08-06T14:59:54;21.70;99.90
31527;DHT22;18136;42.236;-73.040;2023-08-06T15:02:21;21.70;99.90
31527;DHT22;18136;42.236;-73.040;2023-08-06T15:04:49;21.80;99.90
31527;DHT22;18136;42.236;-73.040;2023-08-06T15:07:16;22.00;99.90
31527;DHT22;18136;42.236;-73.040;2023-08-06T15:09:42;22.10;99.90
31527;DHT22;18136;42.236;-73.040;2023-08-06T15:12:08;22.10;99.90
31527;DHT22;18136;42.236;-73.040;2023-08-06T15:14:34;22.00;99.90